Tamworth, Canada
Current Conditions -  °F | °C
As of 8:00 AM on Wednesday 22 Oct 2014 (Local Time) from CYGK Reporting Station
Overcast Overcast  
Wind Chill: 35°   Ceiling: 2000
Heat Index: 43°   Visibility: 15mi
Dew Point: 36°   Wind: 18mph
Humidity: 76%   Direction: 40°NE
Pressure: 30.2"   Gusts: 29mph
Location:  44.47°N, 76.98°W
Report Text: CYGK 221200Z 04016G25KT 15SM OVC020 06/02 A3020 RMK SC8 SLP230
Loading
Personal Weather Stations






























Interactive Weather Map
Tropical Storm Tracking
New forecast layout! Learn more

10-Day Weather Forecast

Advertisements
Track Severe Weather on mobile